createdAt,value
2022-08-25T00:00:41.052Z,84.17
2022-08-25T00:01:36.069Z,84.25
2022-08-25T00:02:31.222Z,84.94
2022-08-25T00:03:26.228Z,85.03
2022-08-25T00:04:21.213Z,85.46
2022-08-25T00:05:16.337Z,85.37
2022-08-25T00:06:13.842Z,86.53
2022-08-25T00:07:08.921Z,86.71
2022-08-25T00:08:04.056Z,87.25
2022-08-25T00:08:59.002Z,87.80
2022-08-25T00:09:54.101Z,89.11
2022-08-25T00:10:59.920Z,89.21
2022-08-25T00:11:45.321Z,88.64
2022-08-25T00:12:39.321Z,87.52
2022-08-25T00:13:34.458Z,87.25
2022-08-25T00:14:29.551Z,88.45
2022-08-25T00:15:24.637Z,89.30
2022-08-25T00:16:19.797Z,90.27
2022-08-25T00:17:14.801Z,90.46
2022-08-25T00:18:16.944Z,89.59
2022-08-25T00:19:05.925Z,89.21
2022-08-25T00:19:59.980Z,89.30
2022-08-25T00:20:55.168Z,90.17
2022-08-25T00:21:50.401Z,91.26
2022-08-25T00:22:45.503Z,92.16
2022-08-25T00:23:40.907Z,92.68
2022-08-25T00:24:36.105Z,93.09
2022-08-25T00:25:31.219Z,91.06
2022-08-25T00:26:26.453Z,87.07
2022-08-25T00:27:21.556Z,86.71
2022-08-25T00:28:16.776Z,87.34
2022-08-25T00:29:12.006Z,88.26
2022-08-25T00:30:07.148Z,88.45
2022-08-25T00:31:02.439Z,88.45
2022-08-25T00:31:57.663Z,89.59
2022-08-25T00:32:57.201Z,91.16
2022-08-25T00:33:48.264Z,92.57
2022-08-25T00:34:43.516Z,91.16
2022-08-25T00:35:38.726Z,90.17
2022-08-25T00:36:33.848Z,90.07
2022-08-25T00:37:29.063Z,89.98
2022-08-25T00:38:24.262Z,91.36
2022-08-25T00:39:19.402Z,91.76
2022-08-25T00:40:14.549Z,91.56
2022-08-25T00:41:09.742Z,91.86
2022-08-25T00:42:04.853Z,91.86
2022-08-25T00:43:01.002Z,91.66
2022-08-25T00:43:55.151Z,91.26
2022-08-25T00:44:50.420Z,91.46
2022-08-25T00:45:45.502Z,91.86
2022-08-25T00:46:40.656Z,92.37
2022-08-25T00:47:35.703Z,92.47
2022-08-25T00:48:31.040Z,93.30
2022-08-25T00:49:26.161Z,94.14
2022-08-25T00:50:21.369Z,92.57
2022-08-25T00:51:16.502Z,92.47
2022-08-25T00:52:11.581Z,92.47
2022-08-25T00:53:06.640Z,92.06
2022-08-25T00:54:01.740Z,92.26
2022-08-25T00:54:56.837Z,91.26
2022-08-25T00:55:52.078Z,91.46
2022-08-25T00:56:47.182Z,92.06
2022-08-25T00:57:42.255Z,92.16
2022-08-25T00:58:37.317Z,93.40
2022-08-25T00:59:32.456Z,94.14
2022-08-25T01:00:27.404Z,94.03
2022-08-25T01:01:22.520Z,94.03
2022-08-25T01:02:17.518Z,92.99
2022-08-25T01:03:12.577Z,92.78
2022-08-25T01:04:07.675Z,92.57
2022-08-25T01:05:02.819Z,92.68
2022-08-25T01:05:57.790Z,92.26
2022-08-25T01:06:52.813Z,92.68
2022-08-25T01:07:47.812Z,92.78
2022-08-25T01:08:42.834Z,93.19
2022-08-25T01:09:37.906Z,92.78
2022-08-25T01:10:32.989Z,92.88
2022-08-25T01:11:28.063Z,93.19
2022-08-25T01:12:23.177Z,93.19
2022-08-25T01:13:18.301Z,94.03
2022-08-25T01:14:13.374Z,94.35
2022-08-25T01:15:10.221Z,95.54
2022-08-25T01:16:05.386Z,95.54
2022-08-25T01:17:00.314Z,95.76
2022-08-25T01:17:55.409Z,94.71
2022-08-25T01:18:50.492Z,95.19
2022-08-25T01:19:45.554Z,94.82
2022-08-25T01:20:40.729Z,95.08
2022-08-25T01:21:35.687Z,95.58
2022-08-25T01:22:30.677Z,95.47
2022-08-25T01:23:25.751Z,95.36
2022-08-25T01:24:20.810Z,96.02
2022-08-25T01:25:15.939Z,96.35
2022-08-25T01:26:11.029Z,96.13
2022-08-25T01:27:06.108Z,96.51
2022-08-25T01:28:01.238Z,96.35
2022-08-25T01:28:56.214Z,95.96
2022-08-25T01:29:51.327Z,95.68
2022-08-25T01:30:46.434Z,96.40
2022-08-25T01:31:41.518Z,96.74
2022-08-25T01:32:36.592Z,97.13
2022-08-25T01:33:31.661Z,97.59
2022-08-25T01:34:26.716Z,97.08
2022-08-25T01:35:21.789Z,97.82
2022-08-25T01:36:16.873Z,97.70
2022-08-25T01:37:12.073Z,97.25
2022-08-25T01:38:07.005Z,97.47
2022-08-25T01:39:02.115Z,96.96
2022-08-25T01:39:57.274Z,98.33
2022-08-25T01:40:52.242Z,97.93
2022-08-25T01:41:48.316Z,97.76
2022-08-25T01:42:43.381Z,97.47
2022-08-25T01:43:38.733Z,97.99
2022-08-25T01:44:33.873Z,97.82
2022-08-25T01:45:29.062Z,97.59
2022-08-25T01:46:24.264Z,97.87
2022-08-25T01:47:19.346Z,97.47
2022-08-25T01:48:14.609Z,97.13
2022-08-25T01:49:10.413Z,97.47
2022-08-25T01:50:05.612Z,97.53
2022-08-25T01:51:00.852Z,97.93
2022-08-25T01:51:56.526Z,98.28
2022-08-25T01:52:51.779Z,98.05
2022-08-25T01:53:47.637Z,97.82
2022-08-25T01:54:42.710Z,97.87
2022-08-25T01:55:38.095Z,98.68
2022-08-25T01:56:33.767Z,99.27
2022-08-25T01:57:29.028Z,99.51
2022-08-25T01:58:24.149Z,99.15
2022-08-25T01:59:24.333Z,99.63
2022-08-25T02:00:15.898Z,99.69
2022-08-25T02:01:11.758Z,100.04
2022-08-25T02:02:06.949Z,99.93
2022-08-25T02:03:02.164Z,99.33
2022-08-25T02:03:57.867Z,99.69
2022-08-25T02:04:53.080Z,99.86
2022-08-25T02:05:48.841Z,100.04
2022-08-25T02:06:43.975Z,99.21
2022-08-25T02:07:39.158Z,99.81
2022-08-25T02:08:35.281Z,99.99
2022-08-25T02:09:30.469Z,100.71
2022-08-25T02:10:25.715Z,100.71
2022-08-25T02:11:22.113Z,100.77
2022-08-25T02:12:17.429Z,100.17
2022-08-25T02:13:13.170Z,99.51
2022-08-25T02:14:08.372Z,99.57
2022-08-25T02:15:03.528Z,99.86
2022-08-25T02:15:59.384Z,99.86
2022-08-25T02:16:54.731Z,99.45
2022-08-25T02:17:50.673Z,99.21
2022-08-25T02:18:45.775Z,99.15
2022-08-25T02:19:41.176Z,99.51
2022-08-25T02:20:37.037Z,100.47
2022-08-25T02:21:32.282Z,99.33
2022-08-25T02:22:27.675Z,99.69
2022-08-25T02:23:23.779Z,99.63
2022-08-25T02:24:19.059Z,99.21
2022-08-25T02:25:14.888Z,99.51
2022-08-25T02:26:10.102Z,98.80
2022-08-25T02:27:05.343Z,98.51
2022-08-25T02:28:01.096Z,97.82
2022-08-25T02:28:56.181Z,97.93
2022-08-25T02:29:51.998Z,97.13
2022-08-25T02:30:47.211Z,96.63
2022-08-25T02:31:42.577Z,95.90
2022-08-25T02:32:38.260Z,95.47
2022-08-25T02:33:33.488Z,94.98
2022-08-25T02:34:28.579Z,94.49
2022-08-25T02:35:25.036Z,94.89
2022-08-25T02:36:20.338Z,94.35
2022-08-25T02:37:16.114Z,94.67
2022-08-25T02:38:11.323Z,94.35
2022-08-25T02:39:06.452Z,94.14
2022-08-25T02:40:02.348Z,93.51
2022-08-25T02:40:57.618Z,93.93
2022-08-25T02:41:53.268Z,93.93
2022-08-25T02:42:48.477Z,93.61
2022-08-25T02:43:43.760Z,94.57
2022-08-25T02:44:39.535Z,94.35
2022-08-25T02:45:34.745Z,95.00
2022-08-25T02:46:29.810Z,94.57
2022-08-25T02:47:26.884Z,95.54
2022-08-25T02:48:21.355Z,94.39
2022-08-25T02:49:16.559Z,94.17
2022-08-25T02:50:11.669Z,95.08
2022-08-25T02:51:08.301Z,94.87
2022-08-25T02:52:03.408Z,95.76
2022-08-25T02:52:58.515Z,94.07
2022-08-25T02:53:55.081Z,94.07
2022-08-25T02:54:50.356Z,95.03
2022-08-25T02:55:46.142Z,94.87
2022-08-25T02:56:41.345Z,95.08
2022-08-25T02:57:36.479Z,95.30
2022-08-25T02:58:32.267Z,95.36
2022-08-25T02:59:27.523Z,95.90
2022-08-25T03:00:23.331Z,95.52
2022-08-25T03:01:18.598Z,95.79
2022-08-25T03:02:13.794Z,95.96
2022-08-25T03:03:09.592Z,95.58
2022-08-25T03:04:04.720Z,95.90
2022-08-25T03:04:59.976Z,96.46
2022-08-25T03:05:56.311Z,96.35
2022-08-25T03:06:51.397Z,96.63
2022-08-25T03:07:46.589Z,96.63
2022-08-25T03:08:41.754Z,96.51
2022-08-25T03:09:36.969Z,95.79
2022-08-25T03:10:32.738Z,95.03
2022-08-25T03:11:27.984Z,95.30
2022-08-25T03:12:23.202Z,95.68
2022-08-25T03:13:19.039Z,94.98
2022-08-25T03:14:14.259Z,94.33
2022-08-25T03:15:13.259Z,95.87
2022-08-25T03:16:04.693Z,95.65
2022-08-25T03:17:00.559Z,95.76
2022-08-25T03:17:55.722Z,94.67
2022-08-25T03:18:51.995Z,94.25
2022-08-25T03:19:47.234Z,95.11
2022-08-25T03:20:42.395Z,95.43
2022-08-25T03:21:41.679Z,95.00
2022-08-25T03:22:36.915Z,95.32
2022-08-25T03:23:32.045Z,94.01
2022-08-25T03:24:27.251Z,95.19
2022-08-25T03:25:24.263Z,95.47
2022-08-25T03:26:17.445Z,95.08
2022-08-25T03:27:12.554Z,95.52
2022-08-25T03:28:13.610Z,96.02
2022-08-25T03:29:08.828Z,96.02
2022-08-25T03:30:03.914Z,96.68
2022-08-25T03:30:59.156Z,95.90
2022-08-25T03:31:54.727Z,95.63
2022-08-25T03:32:49.707Z,95.58
2022-08-25T03:33:44.954Z,94.98
2022-08-25T03:34:40.092Z,95.36
2022-08-25T03:35:35.289Z,94.92
2022-08-25T03:36:31.760Z,95.25
2022-08-25T03:37:26.895Z,95.90
2022-08-25T03:38:22.680Z,96.18
2022-08-25T03:39:17.920Z,96.96
2022-08-25T03:40:15.259Z,97.13
2022-08-25T03:41:08.886Z,97.64
2022-08-25T03:42:04.031Z,98.57
2022-08-25T03:42:59.820Z,98.63
2022-08-25T03:43:55.021Z,98.57
2022-08-25T03:44:50.289Z,98.74
2022-08-25T03:45:46.102Z,98.22
2022-08-25T03:46:41.207Z,98.74
2022-08-25T03:47:36.439Z,99.39
2022-08-25T03:48:32.797Z,99.04
2022-08-25T03:49:28.073Z,98.80
2022-08-25T03:50:23.826Z,98.22
2022-08-25T03:51:18.998Z,98.98
2022-08-25T03:52:14.167Z,98.63
2022-08-25T03:53:09.917Z,98.51
2022-08-25T03:54:05.204Z,98.57
2022-08-25T03:55:00.953Z,97.82
2022-08-25T03:55:56.306Z,96.29
2022-08-25T03:56:51.603Z,95.36
2022-08-25T03:57:47.227Z,95.68
2022-08-25T03:58:42.424Z,96.18
2022-08-25T03:59:37.623Z,97.36
2022-08-25T04:00:34.028Z,97.76
2022-08-25T04:01:29.328Z,98.68
2022-08-25T04:02:25.117Z,98.63
2022-08-25T04:03:20.299Z,99.33
2022-08-25T04:04:15.582Z,99.99
2022-08-25T04:05:11.363Z,100.04
2022-08-25T04:06:06.615Z,101.26
2022-08-25T04:07:02.388Z,101.01
2022-08-25T04:07:57.622Z,101.07
2022-08-25T04:08:52.951Z,102.00
2022-08-25T04:09:48.650Z,101.88
2022-08-25T04:10:43.930Z,103.07
2022-08-25T04:11:39.196Z,102.95
2022-08-25T04:12:35.713Z,102.00
2022-08-25T04:13:30.979Z,103.07
2022-08-25T04:14:26.839Z,103.14
2022-08-25T04:15:22.104Z,102.88
2022-08-25T04:16:17.419Z,102.19
2022-08-25T04:17:13.138Z,101.26
2022-08-25T04:18:08.434Z,100.41
2022-08-25T04:19:04.282Z,99.51
2022-08-25T04:19:59.418Z,99.45
2022-08-25T04:20:54.679Z,99.21
2022-08-25T04:21:49.901Z,99.21
2022-08-25T04:22:46.355Z,98.86
2022-08-25T04:23:41.637Z,99.63
2022-08-25T04:24:37.412Z,100.77
2022-08-25T04:25:32.723Z,100.71
2022-08-25T04:26:28.319Z,102.38
2022-08-25T04:27:23.945Z,103.07
2022-08-25T04:28:19.280Z,103.65
2022-08-25T04:29:15.080Z,103.91
2022-08-25T04:30:10.459Z,104.69
2022-08-25T04:31:05.966Z,105.08
2022-08-25T04:32:01.821Z,104.82
2022-08-25T04:32:57.119Z,105.28
2022-08-25T04:33:52.553Z,104.82
2022-08-25T04:34:48.761Z,104.69
2022-08-25T04:35:44.162Z,103.78
2022-08-25T04:36:39.537Z,104.04
2022-08-25T04:37:34.922Z,103.07
2022-08-25T04:38:32.087Z,103.20
2022-08-25T04:39:27.636Z,103.20
2022-08-25T04:40:27.958Z,103.65
2022-08-25T04:41:19.297Z,103.78
2022-08-25T04:42:13.722Z,104.43
2022-08-25T04:43:09.502Z,104.62
2022-08-25T04:44:04.884Z,104.49
2022-08-25T04:45:00.227Z,104.56
2022-08-25T04:45:55.805Z,103.91
2022-08-25T04:46:52.324Z,103.26
2022-08-25T04:47:51.707Z,103.71
2022-08-25T04:48:44.281Z,104.43
2022-08-25T04:49:38.613Z,103.84
2022-08-25T04:50:33.584Z,103.01
2022-08-25T04:51:28.707Z,103.07
2022-08-25T04:52:23.728Z,103.78
2022-08-25T04:53:18.705Z,103.84
2022-08-25T04:54:14.549Z,103.07
2022-08-25T04:55:12.888Z,103.20
2022-08-25T04:56:07.938Z,102.57
2022-08-25T04:57:03.009Z,102.44
2022-08-25T04:57:58.028Z,101.57
2022-08-25T04:58:53.192Z,101.20
2022-08-25T04:59:48.225Z,101.88
2022-08-25T05:00:43.304Z,100.89
2022-08-25T05:01:38.290Z,100.35
2022-08-25T05:02:33.328Z,101.14
2022-08-25T05:03:28.505Z,102.13
2022-08-25T05:04:28.194Z,102.88
2022-08-25T05:05:19.593Z,102.88
2022-08-25T05:06:16.069Z,102.95
2022-08-25T05:07:10.601Z,102.13
2022-08-25T05:08:05.855Z,101.38
2022-08-25T05:09:00.717Z,100.95
2022-08-25T05:09:55.784Z,100.41
2022-08-25T05:10:50.892Z,98.86
2022-08-25T05:11:46.159Z,98.05
2022-08-25T05:12:41.599Z,98.22
2022-08-25T05:13:36.917Z,97.30
2022-08-25T05:14:32.753Z,97.70
2022-08-25T05:15:28.135Z,98.28
2022-08-25T05:16:23.475Z,96.02
2022-08-25T05:17:18.821Z,95.54
2022-08-25T05:18:14.229Z,91.26
2022-08-25T05:19:09.674Z,89.88
2022-08-25T05:20:05.056Z,89.59
2022-08-25T05:21:00.550Z,91.66
2022-08-25T05:21:57.975Z,90.46
2022-08-25T05:22:51.260Z,90.27
2022-08-25T05:23:46.388Z,90.56
2022-08-25T05:24:41.509Z,91.76
2022-08-25T05:25:36.590Z,93.30
2022-08-25T05:26:31.617Z,94.57
2022-08-25T05:27:26.722Z,95.87
2022-08-25T05:28:21.915Z,94.92
2022-08-25T05:29:16.908Z,94.98
2022-08-25T05:30:14.208Z,94.82
2022-08-25T05:31:09.266Z,94.87
2022-08-25T05:32:04.369Z,94.17
2022-08-25T05:32:59.293Z,95.43
2022-08-25T05:33:54.316Z,94.35
2022-08-25T05:34:49.303Z,93.51
2022-08-25T05:35:44.297Z,90.56
2022-08-25T05:36:39.326Z,85.46
2022-08-25T05:37:34.355Z,84.00
2022-08-25T05:38:29.373Z,83.33
2022-08-25T05:39:26.986Z,82.02
2022-08-25T05:40:19.512Z,82.34
2022-08-25T05:41:14.530Z,82.58
2022-08-25T05:42:09.557Z,81.78
2022-08-25T05:43:04.624Z,80.90
2022-08-25T05:43:59.639Z,81.38
2022-08-25T05:44:54.847Z,79.67
2022-08-25T05:45:54.151Z,77.67
2022-08-25T05:46:49.574Z,77.23
2022-08-25T05:47:44.953Z,77.02
2022-08-25T05:48:40.415Z,77.16
2022-08-25T05:49:35.855Z,77.52
2022-08-25T05:50:31.431Z,78.03
2022-08-25T05:51:26.841Z,77.38
2022-08-25T05:52:22.220Z,76.04
2022-08-25T05:53:17.662Z,75.35
2022-08-25T05:54:13.105Z,73.49
2022-08-25T05:55:08.531Z,72.10
2022-08-25T05:56:04.041Z,70.45
2022-08-25T05:56:59.473Z,68.37
2022-08-25T05:57:55.467Z,66.10
2022-08-25T05:58:50.859Z,64.92
2022-08-25T05:59:45.849Z,64.12
2022-08-25T06:00:40.907Z,63.24
2022-08-25T06:01:35.977Z,62.16
2022-08-25T06:02:31.042Z,59.80
2022-08-25T06:03:26.253Z,55.80
2022-08-25T06:04:21.296Z,52.83
2022-08-25T06:05:16.303Z,49.42
2022-08-25T06:06:11.485Z,46.25
2022-08-25T06:07:06.441Z,43.64
2022-08-25T06:08:01.506Z,41.76
2022-08-25T06:08:57.369Z,39.51
2022-08-25T06:09:52.417Z,37.93
2022-08-25T06:10:47.456Z,37.02
2022-08-25T06:11:42.508Z,36.06
2022-08-25T06:12:38.765Z,35.39
2022-08-25T06:13:34.321Z,35.03
2022-08-25T06:14:29.675Z,34.80
2022-08-25T06:15:25.085Z,34.95
2022-08-25T06:16:20.590Z,35.30
2022-08-25T06:17:16.015Z,35.42
2022-08-25T06:18:11.468Z,35.48
2022-08-25T06:19:06.853Z,35.66
2022-08-25T06:20:02.327Z,35.78
2022-08-25T06:20:57.757Z,36.38
2022-08-25T06:21:53.213Z,36.31
2022-08-25T06:22:48.646Z,36.28
2022-08-25T06:23:44.092Z,36.47
2022-08-25T06:24:39.999Z,37.02
2022-08-25T06:25:35.413Z,37.90
2022-08-25T06:26:30.857Z,39.25
2022-08-25T06:27:26.280Z,39.96
2022-08-25T06:28:21.731Z,40.90
2022-08-25T06:29:17.310Z,41.59
2022-08-25T06:30:12.779Z,41.43
2022-08-25T06:31:07.891Z,41.02
2022-08-25T06:32:02.929Z,41.64
2022-08-25T06:32:57.978Z,43.10
2022-08-25T06:33:53.128Z,44.10
2022-08-25T06:34:48.199Z,44.86
2022-08-25T06:35:43.212Z,44.95
2022-08-25T06:36:38.250Z,45.39
2022-08-25T06:37:33.307Z,45.94
2022-08-25T06:38:28.329Z,46.87
2022-08-25T06:39:23.453Z,46.92
2022-08-25T06:40:18.623Z,50.47
2022-08-25T06:41:13.646Z,55.03
2022-08-25T06:42:08.744Z,57.29
2022-08-25T06:43:03.800Z,59.54
2022-08-25T06:44:04.722Z,61.52
2022-08-25T06:44:55.741Z,63.34
2022-08-25T06:45:50.222Z,64.07
2022-08-25T06:46:45.704Z,67.54
2022-08-25T06:47:41.968Z,68.09
2022-08-25T06:48:36.297Z,69.40
2022-08-25T06:49:35.575Z,70.81
2022-08-25T06:50:26.997Z,74.81
2022-08-25T06:51:21.486Z,79.44
2022-08-25T06:52:16.500Z,82.83
2022-08-25T06:53:11.515Z,85.64
2022-08-25T06:54:06.691Z,88.08
2022-08-25T06:55:01.716Z,89.88
2022-08-25T06:55:56.735Z,89.98
2022-08-25T06:56:51.766Z,91.96
2022-08-25T06:57:46.813Z,94.35
2022-08-25T06:58:41.847Z,94.98
2022-08-25T06:59:36.863Z,96.02
2022-08-25T07:00:32.102Z,97.36
2022-08-25T07:01:27.772Z,99.51
2022-08-25T07:02:23.212Z,97.13
2022-08-25T07:03:18.642Z,95.03
2022-08-25T07:04:14.101Z,94.03
2022-08-25T07:05:13.184Z,93.51
2022-08-25T07:06:04.935Z,94.14
2022-08-25T07:07:00.384Z,94.57
2022-08-25T07:07:55.793Z,91.96
2022-08-25T07:08:51.415Z,92.06
2022-08-25T07:09:46.892Z,93.51
2022-08-25T07:10:42.383Z,93.61
2022-08-25T07:11:38.830Z,95.36
2022-08-25T07:12:33.309Z,98.80
2022-08-25T07:13:28.802Z,100.71
2022-08-25T07:14:24.302Z,103.71
2022-08-25T07:15:20.717Z,105.22
2022-08-25T07:16:14.600Z,107.87
2022-08-25T07:17:12.458Z,108.50
2022-08-25T07:18:04.827Z,109.36
2022-08-25T07:19:00.133Z,107.94
2022-08-25T07:19:57.650Z,106.49
2022-08-25T07:20:49.868Z,106.02
2022-08-25T07:21:44.902Z,104.36
2022-08-25T07:22:39.987Z,100.41
2022-08-25T07:23:34.987Z,99.69
2022-08-25T07:24:31.139Z,102.38
2022-08-25T07:25:26.607Z,99.33
2022-08-25T07:26:36.761Z,100.77
2022-08-25T07:27:18.400Z,102.00
2022-08-25T07:28:12.767Z,102.76
2022-08-25T07:29:07.816Z,109.57
2022-08-25T07:30:02.878Z,114.22
2022-08-25T07:30:58.153Z,115.25
2022-08-25T07:31:53.071Z,118.02
2022-08-25T07:32:48.144Z,118.43
2022-08-25T07:33:44.204Z,112.15
2022-08-25T07:34:39.036Z,106.15
2022-08-25T07:35:37.466Z,105.08
2022-08-25T07:36:28.514Z,104.82
2022-08-25T07:37:48.526Z,102.69
2022-08-25T07:38:20.806Z,107.25
2022-08-25T07:39:14.322Z,111.70
2022-08-25T07:40:09.859Z,119.28
2022-08-25T07:41:05.222Z,126.32
2022-08-25T07:42:00.734Z,130.99
2022-08-25T07:42:56.235Z,131.60
2022-08-25T07:43:51.717Z,130.27
2022-08-25T07:44:47.214Z,129.56
2022-08-25T07:45:49.492Z,128.37
2022-08-25T07:46:39.172Z,133.07
2022-08-25T07:47:33.532Z,133.50
2022-08-25T07:48:29.043Z,130.37
2022-08-25T07:49:24.579Z,129.36
2022-08-25T07:50:20.037Z,132.97
2022-08-25T07:51:15.539Z,129.76
2022-08-25T07:52:10.950Z,123.70
2022-08-25T07:53:06.647Z,133.07
2022-08-25T07:54:01.479Z,126.13
2022-08-25T07:54:56.524Z,126.52
2022-08-25T07:55:51.727Z,127.39
2022-08-25T07:56:46.717Z,130.78
2022-08-25T07:57:41.796Z,135.89
2022-08-25T07:58:36.837Z,141.54
2022-08-25T07:59:39.002Z,147.29
2022-08-25T08:00:28.108Z,149.13
2022-08-25T08:01:22.097Z,150.47
2022-08-25T08:02:19.071Z,151.29
2022-08-25T08:03:35.216Z,152.82
2022-08-25T08:04:11.613Z,152.68
2022-08-25T08:05:06.012Z,152.96
2022-08-25T08:06:01.560Z,149.40
2022-08-25T08:06:56.982Z,149.80
2022-08-25T08:07:52.333Z,153.80
2022-08-25T08:08:47.937Z,161.86
2022-08-25T08:09:43.444Z,170.80
2022-08-25T08:10:54.123Z,175.66
2022-08-25T08:11:35.133Z,166.21
2022-08-25T08:12:29.691Z,162.33
2022-08-25T08:13:25.128Z,160.15
2022-08-25T08:14:20.661Z,156.84
2022-08-25T08:15:16.170Z,151.02
2022-08-25T08:16:11.619Z,150.07
2022-08-25T08:17:06.680Z,154.09
2022-08-25T08:18:01.727Z,153.10
2022-08-25T08:18:56.756Z,154.80
2022-08-25T08:19:52.007Z,153.66
2022-08-25T08:20:47.056Z,156.84
2022-08-25T08:21:42.043Z,162.17
2022-08-25T08:22:37.267Z,162.65
2022-08-25T08:23:32.373Z,162.49
2022-08-25T08:24:44.452Z,154.66
2022-08-25T08:25:27.342Z,148.46
2022-08-25T08:26:17.425Z,144.23
2022-08-25T08:27:12.441Z,150.07
2022-08-25T08:28:07.685Z,154.80
2022-08-25T08:29:02.638Z,157.43
2022-08-25T08:29:57.655Z,147.68
2022-08-25T08:30:53.312Z,142.02
2022-08-25T08:31:48.789Z,141.78
2022-08-25T08:33:06.224Z,139.29
2022-08-25T08:33:40.734Z,147.29
2022-08-25T08:34:34.251Z,146.25
2022-08-25T08:35:29.305Z,142.26
2022-08-25T08:36:25.477Z,136.78
2022-08-25T08:37:21.978Z,133.82
2022-08-25T08:38:19.587Z,140.59
2022-08-25T08:39:10.530Z,146.00
2022-08-25T08:40:04.615Z,152.12
2022-08-25T08:40:59.630Z,153.94
2022-08-25T08:42:10.878Z,158.03
2022-08-25T08:42:50.742Z,163.76
2022-08-25T08:43:44.859Z,163.76
2022-08-25T08:44:39.961Z,160.46
2022-08-25T08:45:40.580Z,154.23
2022-08-25T08:46:32.153Z,161.70
2022-08-25T08:47:26.468Z,166.21
2022-08-25T08:48:21.853Z,172.04
2022-08-25T08:49:16.929Z,175.47
2022-08-25T08:50:12.001Z,172.21
2022-08-25T08:51:09.761Z,161.39
2022-08-25T08:52:02.776Z,159.69
2022-08-25T08:52:57.116Z,155.38
2022-08-25T08:53:52.237Z,158.63
2022-08-25T08:54:47.266Z,171.15
2022-08-25T08:55:43.069Z,184.19
2022-08-25T08:56:38.187Z,187.64
2022-08-25T08:57:34.185Z,187.75
2022-08-25T08:58:28.285Z,187.00
2022-08-25T08:59:29.784Z,180.99
2022-08-25T09:00:20.787Z,173.11
2022-08-25T09:01:15.415Z,178.10
2022-08-25T09:02:13.757Z,189.81
2022-08-25T09:03:06.767Z,197.58
2022-08-25T09:04:01.987Z,212.56
2022-08-25T09:04:57.568Z,209.44
2022-08-25T09:05:53.058Z,189.37
2022-08-25T09:06:48.643Z,180.40
2022-08-25T09:07:44.175Z,178.48
2022-08-25T09:08:39.681Z,188.72
2022-08-25T09:09:36.240Z,197.70
2022-08-25T09:10:30.596Z,205.76
2022-08-25T09:11:26.559Z,207.19
2022-08-25T09:12:21.035Z,206.54
2022-08-25T09:13:16.023Z,205.50
2022-08-25T09:14:11.141Z,205.89
2022-08-25T09:15:12.573Z,213.11
2022-08-25T09:16:02.189Z,219.09
2022-08-25T09:16:56.237Z,226.34
2022-08-25T09:17:54.304Z,228.87
2022-08-25T09:18:51.594Z,229.51
2022-08-25T09:19:43.842Z,233.93
2022-08-25T09:20:38.958Z,228.39
2022-08-25T09:21:34.039Z,226.65
2022-08-25T09:22:35.182Z,233.76
2022-08-25T09:23:25.184Z,238.34
2022-08-25T09:24:19.323Z,237.14
2022-08-25T09:25:22.059Z,238.69
2022-08-25T09:26:12.291Z,233.10
2022-08-25T09:27:06.873Z,224.18
2022-08-25T09:28:02.397Z,211.33
2022-08-25T09:28:57.951Z,208.90
2022-08-25T09:29:53.474Z,207.71
2022-08-25T09:30:49.054Z,208.51
2022-08-25T09:31:44.500Z,206.41
2022-08-25T09:32:39.510Z,199.14
2022-08-25T09:33:35.658Z,186.04
2022-08-25T09:34:29.669Z,186.68
2022-08-25T09:35:24.765Z,185.62
2022-08-25T09:36:19.934Z,204.73
2022-08-25T09:37:14.869Z,229.67
2022-08-25T09:38:10.014Z,235.60
2022-08-25T09:39:05.002Z,244.38
2022-08-25T09:40:00.214Z,254.82
2022-08-25T09:40:55.241Z,264.05
2022-08-25T09:41:51.216Z,275.35
2022-08-25T09:42:46.456Z,253.44
2022-08-25T09:43:42.018Z,251.30
2022-08-25T09:44:37.569Z,255.41
2022-08-25T09:45:32.938Z,256.21
2022-08-25T09:46:28.484Z,258.84
2022-08-25T09:47:23.950Z,263.20
2022-08-25T09:48:19.578Z,262.36
2022-08-25T09:49:14.898Z,260.07
2022-08-25T09:50:10.277Z,257.21
2022-08-25T09:51:07.992Z,244.74
2022-08-25T09:52:02.577Z,242.21
2022-08-25T09:52:58.220Z,238.17
2022-08-25T09:53:53.539Z,244.74
2022-08-25T09:54:48.947Z,254.62
2022-08-25T09:55:44.613Z,256.01
2022-08-25T09:56:40.137Z,258.02
2022-08-25T09:57:35.700Z,269.69
2022-08-25T09:58:31.220Z,280.77
2022-08-25T09:59:34.236Z,288.67
2022-08-25T10:00:23.253Z,295.16
2022-08-25T10:01:17.820Z,297.30
2022-08-25T10:02:15.872Z,274.20
2022-08-25T10:03:08.769Z,280.29
2022-08-25T10:04:07.331Z,296.23
2022-08-25T10:05:03.880Z,275.81
2022-08-25T10:05:58.226Z,268.36
2022-08-25T10:06:53.925Z,255.81
2022-08-25T10:07:51.943Z,284.42
2022-08-25T10:08:45.229Z,297.03
2022-08-25T10:09:40.778Z,304.47
2022-08-25T10:10:36.185Z,295.69
2022-08-25T10:11:31.696Z,274.20
2022-08-25T10:12:27.773Z,270.58
2022-08-25T10:13:23.073Z,262.36
2022-08-25T10:14:17.484Z,273.28
2022-08-25T10:15:12.493Z,283.92
2022-08-25T10:16:17.682Z,299.20
2022-08-25T10:17:03.644Z,311.11
2022-08-25T10:17:57.721Z,318.67
2022-08-25T10:18:52.715Z,314.69
2022-08-25T10:19:47.781Z,333.91
2022-08-25T10:20:44.848Z,351.81
2022-08-25T10:21:37.987Z,342.63
2022-08-25T10:22:33.097Z,335.96
2022-08-25T10:23:28.214Z,354.85
2022-08-25T10:24:23.222Z,352.95
2022-08-25T10:25:18.314Z,321.48
2022-08-25T10:26:13.360Z,330.55
2022-08-25T10:27:09.069Z,339.79
2022-08-25T10:28:04.382Z,363.50
2022-08-25T10:28:59.240Z,376.86
2022-08-25T10:29:54.324Z,376.86
2022-08-25T10:30:49.453Z,383.02
2022-08-25T10:31:44.404Z,387.69
2022-08-25T10:32:39.419Z,372.58
2022-08-25T10:33:34.443Z,372.58
2022-08-25T10:34:29.459Z,365.12
2022-08-25T10:35:24.452Z,356.78
2022-08-25T10:36:20.444Z,331.21
2022-08-25T10:37:15.362Z,303.63
2022-08-25T10:38:10.995Z,271.47
2022-08-25T10:39:05.874Z,273.74
2022-08-25T10:40:02.013Z,284.91
2022-08-25T10:40:56.011Z,277.21
2022-08-25T10:41:53.337Z,303.35
2022-08-25T10:42:46.175Z,322.11
2022-08-25T10:43:41.221Z,318.98
2022-08-25T10:44:36.665Z,328.23
2022-08-25T10:45:31.962Z,342.27
2022-08-25T10:46:27.478Z,327.25
2022-08-25T10:47:22.932Z,330.55
2022-08-25T10:48:18.333Z,300.57
2022-08-25T10:49:13.708Z,297.30
2022-08-25T10:50:08.814Z,308.77
2022-08-25T10:51:03.818Z,332.22
2022-08-25T10:51:58.986Z,345.88
2022-08-25T10:52:54.120Z,383.24
2022-08-25T10:53:49.199Z,412.13
2022-08-25T10:54:44.241Z,393.88
2022-08-25T10:55:40.418Z,371.32
2022-08-25T10:56:40.929Z,375.14
2022-08-25T10:57:32.086Z,399.30
2022-08-25T10:58:30.814Z,364.71
2022-08-25T10:59:22.294Z,370.90
2022-08-25T11:00:18.188Z,368.40
2022-08-25T11:01:13.649Z,360.31
2022-08-25T11:02:09.236Z,401.22
2022-08-25T11:03:05.037Z,410.11
2022-08-25T11:04:00.303Z,401.22
2022-08-25T11:04:55.793Z,372.58
2022-08-25T11:05:51.392Z,335.62
2022-08-25T11:06:50.255Z,323.06
2022-08-25T11:07:43.359Z,359.13
2022-08-25T11:08:37.834Z,382.80
2022-08-25T11:09:33.467Z,385.90
2022-08-25T11:10:29.069Z,393.18
2022-08-25T11:11:24.564Z,399.30
2022-08-25T11:12:19.971Z,405.12
2022-08-25T11:13:15.063Z,413.67
2022-08-25T11:14:11.235Z,406.11
2022-08-25T11:15:05.116Z,405.62
2022-08-25T11:16:16.548Z,419.39
2022-08-25T11:16:56.319Z,440.45
2022-08-25T11:17:50.477Z,457.67
2022-08-25T11:18:45.228Z,479.39
2022-08-25T11:19:42.957Z,507.48
2022-08-25T11:20:38.055Z,516.53
2022-08-25T11:21:34.913Z,504.79
2022-08-25T11:22:28.087Z,449.95
2022-08-25T11:23:23.860Z,496.89
2022-08-25T11:24:18.231Z,543.91
2022-08-25T11:25:13.620Z,566.55
2022-08-25T11:26:09.168Z,542.14
2022-08-25T11:27:04.671Z,530.50
2022-08-25T11:28:00.192Z,526.31
2022-08-25T11:28:55.575Z,517.33
2022-08-25T11:29:51.095Z,505.94
2022-08-25T11:30:46.643Z,535.18
2022-08-25T11:31:42.166Z,562.25
2022-08-25T11:32:37.700Z,562.25
2022-08-25T11:33:33.166Z,605.11
2022-08-25T11:34:28.718Z,578.35
2022-08-25T11:35:24.139Z,520.96
2022-08-25T11:36:19.224Z,503.27
2022-08-25T11:37:14.316Z,548.38
2022-08-25T11:38:09.471Z,603.47
2022-08-25T11:39:04.414Z,617.44
2022-08-25T11:39:59.511Z,587.00
2022-08-25T11:40:54.506Z,559.89
2022-08-25T11:41:49.598Z,583.92